sensor_id;sensor_type;location;lat;lon;timestamp;pressure;altitude;pressure_sealevel;temperature;humidity
3598;BME280;1813;52.016;8.714;2023-02-23T00:02:02;-16261.94;;;-139.71;77.82
3598;BME280;1813;52.016;8.714;2023-02-23T00:04:36;-16261.94;;;-139.71;78.23
3598;BME280;1813;52.016;8.714;2023-02-23T00:07:10;-16261.94;;;-139.71;78.73
3598;BME280;1813;52.016;8.714;2023-02-23T00:09:44;-16261.94;;;-139.71;79.56
3598;BME280;1813;52.016;8.714;2023-02-23T00:12:21;-16261.94;;;-139.71;80.02
3598;BME280;1813;52.016;8.714;2023-02-23T00:14:59;-16261.94;;;-139.71;80.29
3598;BME280;1813;52.016;8.714;2023-02-23T00:17:34;-16261.94;;;-139.71;80.61
3598;BME280;1813;52.016;8.714;2023-02-23T00:20:11;-16261.94;;;-139.71;80.85
3598;BME280;1813;52.016;8.714;2023-02-23T00:22:46;-16261.94;;;-139.71;81.00
3598;BME280;1813;52.016;8.714;2023-02-23T00:25:21;-16261.94;;;-139.71;81.15
3598;BME280;1813;52.016;8.714;2023-02-23T00:27:57;-16261.94;;;-139.71;81.43
3598;BME280;1813;52.016;8.714;2023-02-23T00:30:31;-16261.94;;;-139.71;81.48
3598;BME280;1813;52.016;8.714;2023-02-23T00:33:05;-16261.94;;;-139.71;81.30
3598;BME280;1813;52.016;8.714;2023-02-23T00:35:38;-16261.94;;;-139.71;81.32
3598;BME280;1813;52.016;8.714;2023-02-23T00:38:12;-16261.94;;;-139.71;81.20
3598;BME280;1813;52.016;8.714;2023-02-23T00:40:46;-16261.94;;;-139.71;81.04
3598;BME280;1813;52.016;8.714;2023-02-23T00:43:22;-16261.94;;;-139.71;81.09
3598;BME280;1813;52.016;8.714;2023-02-23T00:45:59;-16261.94;;;-139.71;81.16
3598;BME280;1813;52.016;8.714;2023-02-23T00:48:35;-16261.94;;;-139.71;81.27
3598;BME280;1813;52.016;8.714;2023-02-23T00:51:09;-16261.94;;;-139.71;81.35
3598;BME280;1813;52.016;8.714;2023-02-23T00:53:52;-16261.94;;;-139.71;81.47
3598;BME280;1813;52.016;8.714;2023-02-23T00:56:27;-16261.94;;;-139.71;81.73
3598;BME280;1813;52.016;8.714;2023-02-23T00:59:04;-16261.94;;;-139.71;81.68
3598;BME280;1813;52.016;8.714;2023-02-23T01:01:38;-16261.94;;;-139.71;81.69
3598;BME280;1813;52.016;8.714;2023-02-23T01:04:12;-16261.94;;;-139.71;81.77
3598;BME280;1813;52.016;8.714;2023-02-23T01:06:47;-16261.94;;;-139.71;81.87
3598;BME280;1813;52.016;8.714;2023-02-23T01:09:23;-16261.94;;;-139.71;81.57
3598;BME280;1813;52.016;8.714;2023-02-23T01:12:00;-16261.94;;;-139.71;81.16
3598;BME280;1813;52.016;8.714;2023-02-23T01:14:39;-16261.94;;;-139.71;81.00
3598;BME280;1813;52.016;8.714;2023-02-23T01:17:15;-16261.94;;;-139.71;80.65
3598;BME280;1813;52.016;8.714;2023-02-23T01:19:49;-16261.94;;;-139.71;80.51
3598;BME280;1813;52.016;8.714;2023-02-23T01:22:24;-16261.94;;;-139.71;79.93
3598;BME280;1813;52.016;8.714;2023-02-23T01:24:58;-16261.94;;;-139.71;79.58
3598;BME280;1813;52.016;8.714;2023-02-23T01:27:31;-16261.94;;;-139.71;79.33
3598;BME280;1813;52.016;8.714;2023-02-23T01:30:10;-16261.94;;;-139.71;79.03
3598;BME280;1813;52.016;8.714;2023-02-23T01:32:44;-16261.94;;;-139.71;79.09
3598;BME280;1813;52.016;8.714;2023-02-23T01:35:18;-16261.94;;;-139.71;78.64
3598;BME280;1813;52.016;8.714;2023-02-23T01:37:53;-16261.94;;;-139.71;78.49
3598;BME280;1813;52.016;8.714;2023-02-23T01:40:28;-16261.94;;;-139.71;78.51
3598;BME280;1813;52.016;8.714;2023-02-23T01:43:12;-16261.94;;;-139.71;78.18
3598;BME280;1813;52.016;8.714;2023-02-23T01:45:50;-16261.94;;;-139.71;78.41
3598;BME280;1813;52.016;8.714;2023-02-23T01:48:29;-16261.94;;;-139.71;78.79
3598;BME280;1813;52.016;8.714;2023-02-23T01:51:07;-16261.94;;;-139.71;78.58
3598;BME280;1813;52.016;8.714;2023-02-23T01:53:45;-16261.94;;;-139.71;78.67
3598;BME280;1813;52.016;8.714;2023-02-23T01:56:24;-16261.94;;;-139.71;78.93
3598;BME280;1813;52.016;8.714;2023-02-23T01:59:04;-16261.94;;;-139.71;79.26
3598;BME280;1813;52.016;8.714;2023-02-23T02:01:44;-16261.94;;;-139.71;79.81
3598;BME280;1813;52.016;8.714;2023-02-23T02:04:20;-16261.94;;;-139.71;79.99
3598;BME280;1813;52.016;8.714;2023-02-23T02:06:57;-16261.94;;;-139.71;80.37
3598;BME280;1813;52.016;8.714;2023-02-23T02:09:33;-16261.94;;;-139.71;80.51
3598;BME280;1813;52.016;8.714;2023-02-23T02:12:26;-16261.94;;;-139.71;80.40
3598;BME280;1813;52.016;8.714;2023-02-23T02:15:03;-16261.94;;;-139.71;80.32
3598;BME280;1813;52.016;8.714;2023-02-23T02:17:45;-16261.94;;;-139.71;80.21
3598;BME280;1813;52.016;8.714;2023-02-23T02:20:40;-16261.94;;;-139.71;80.43
3598;BME280;1813;52.016;8.714;2023-02-23T02:23:47;-16261.94;;;-139.71;80.58
3598;BME280;1813;52.016;8.714;2023-02-23T02:26:37;-16261.94;;;-139.71;80.72
3598;BME280;1813;52.016;8.714;2023-02-23T02:32:58;-16261.94;;;-139.71;80.82
3598;BME280;1813;52.016;8.714;2023-02-23T02:36:00;-16261.94;;;-139.71;81.00
3598;BME280;1813;52.016;8.714;2023-02-23T02:38:48;-16261.94;;;-139.71;81.35
3598;BME280;1813;52.016;8.714;2023-02-23T02:41:33;-16261.94;;;-139.71;81.52
3598;BME280;1813;52.016;8.714;2023-02-23T02:44:15;-16261.94;;;-139.71;81.81
3598;BME280;1813;52.016;8.714;2023-02-23T02:46:55;-16261.94;;;-139.71;82.07
3598;BME280;1813;52.016;8.714;2023-02-23T02:49:35;-16261.94;;;-139.71;82.17
3598;BME280;1813;52.016;8.714;2023-02-23T02:52:16;-16261.94;;;-139.71;82.33
3598;BME280;1813;52.016;8.714;2023-02-23T02:54:57;-16261.94;;;-139.71;82.50
3598;BME280;1813;52.016;8.714;2023-02-23T02:57:35;-16261.94;;;-139.71;82.74
3598;BME280;1813;52.016;8.714;2023-02-23T03:00:15;-16261.94;;;-139.71;82.72
3598;BME280;1813;52.016;8.714;2023-02-23T03:03:03;-16261.94;;;-139.71;83.00
3598;BME280;1813;52.016;8.714;2023-02-23T03:05:51;-16261.94;;;-139.71;82.80
3598;BME280;1813;52.016;8.714;2023-02-23T03:08:44;-16261.94;;;-139.71;82.77
3598;BME280;1813;52.016;8.714;2023-02-23T03:11:39;-16261.94;;;-139.71;82.92
3598;BME280;1813;52.016;8.714;2023-02-23T03:14:32;-16261.94;;;-139.71;82.91
3598;BME280;1813;52.016;8.714;2023-02-23T03:17:29;-16261.94;;;-139.71;82.97
3598;BME280;1813;52.016;8.714;2023-02-23T03:20:25;-16261.94;;;-139.71;83.30
3598;BME280;1813;52.016;8.714;2023-02-23T03:23:18;-16261.94;;;-139.71;83.31
3598;BME280;1813;52.016;8.714;2023-02-23T03:26:08;-16261.94;;;-139.71;83.37
3598;BME280;1813;52.016;8.714;2023-02-23T03:29:06;-16261.94;;;-139.71;83.54
3598;BME280;1813;52.016;8.714;2023-02-23T03:32:02;-16261.94;;;-139.71;83.46
3598;BME280;1813;52.016;8.714;2023-02-23T03:34:57;-16261.94;;;-139.71;83.80
3598;BME280;1813;52.016;8.714;2023-02-23T03:37:49;-16261.94;;;-139.71;83.80
3598;BME280;1813;52.016;8.714;2023-02-23T03:40:39;-16261.94;;;-139.71;83.96
3598;BME280;1813;52.016;8.714;2023-02-23T03:43:30;-16261.94;;;-139.71;84.06
3598;BME280;1813;52.016;8.714;2023-02-23T03:46:20;-16261.94;;;-139.71;84.26
3598;BME280;1813;52.016;8.714;2023-02-23T03:49:10;-16261.94;;;-139.71;84.57
3598;BME280;1813;52.016;8.714;2023-02-23T03:52:04;-16261.94;;;-139.71;84.67
3598;BME280;1813;52.016;8.714;2023-02-23T03:54:56;-16261.94;;;-139.71;84.90
3598;BME280;1813;52.016;8.714;2023-02-23T03:57:47;-16261.94;;;-139.71;84.83
3598;BME280;1813;52.016;8.714;2023-02-23T04:00:40;-16261.94;;;-139.71;85.02
3598;BME280;1813;52.016;8.714;2023-02-23T04:03:33;-16261.94;;;-139.71;85.21
3598;BME280;1813;52.016;8.714;2023-02-23T04:06:23;-16261.94;;;-139.71;85.08
3598;BME280;1813;52.016;8.714;2023-02-23T04:09:11;-16261.94;;;-139.71;85.30
3598;BME280;1813;52.016;8.714;2023-02-23T04:12:03;-16261.94;;;-139.71;85.47
3598;BME280;1813;52.016;8.714;2023-02-23T04:14:56;-16261.94;;;-139.71;85.64
3598;BME280;1813;52.016;8.714;2023-02-23T04:17:30;-16261.94;;;-139.71;85.96
3598;BME280;1813;52.016;8.714;2023-02-23T04:20:09;-16261.94;;;-139.71;86.17
3598;BME280;1813;52.016;8.714;2023-02-23T04:22:44;-16261.94;;;-139.71;86.16
3598;BME280;1813;52.016;8.714;2023-02-23T04:25:18;-16261.94;;;-139.71;86.27
3598;BME280;1813;52.016;8.714;2023-02-23T04:27:52;-16261.94;;;-139.71;86.49
3598;BME280;1813;52.016;8.714;2023-02-23T04:30:28;-16261.94;;;-139.71;86.33
3598;BME280;1813;52.016;8.714;2023-02-23T04:33:02;-16261.94;;;-139.71;86.43
3598;BME280;1813;52.016;8.714;2023-02-23T04:35:39;-16261.94;;;-139.71;86.43
3598;BME280;1813;52.016;8.714;2023-02-23T04:38:13;-16261.94;;;-139.71;86.59
3598;BME280;1813;52.016;8.714;2023-02-23T04:40:48;-16261.94;;;-139.71;86.44
3598;BME280;1813;52.016;8.714;2023-02-23T04:43:22;-16261.94;;;-139.71;86.40
3598;BME280;1813;52.016;8.714;2023-02-23T04:45:56;-16261.94;;;-139.71;86.44
3598;BME280;1813;52.016;8.714;2023-02-23T04:48:30;-16261.94;;;-139.71;86.42
3598;BME280;1813;52.016;8.714;2023-02-23T04:51:06;-16261.94;;;-139.71;86.67
3598;BME280;1813;52.016;8.714;2023-02-23T04:53:42;-16261.94;;;-139.71;86.89
3598;BME280;1813;52.016;8.714;2023-02-23T04:56:16;-16261.94;;;-139.71;86.97
3598;BME280;1813;52.016;8.714;2023-02-23T04:58:49;-16261.94;;;-139.71;87.01
3598;BME280;1813;52.016;8.714;2023-02-23T05:01:24;-16261.94;;;-139.71;87.02
3598;BME280;1813;52.016;8.714;2023-02-23T05:03:59;-16261.94;;;-139.71;87.11
3598;BME280;1813;52.016;8.714;2023-02-23T05:06:36;-16261.94;;;-139.71;87.00
3598;BME280;1813;52.016;8.714;2023-02-23T05:09:12;-16261.94;;;-139.71;86.93
3598;BME280;1813;52.016;8.714;2023-02-23T05:11:46;-16261.94;;;-139.71;86.84
3598;BME280;1813;52.016;8.714;2023-02-23T05:14:20;-16261.94;;;-139.71;86.85
3598;BME280;1813;52.016;8.714;2023-02-23T05:16:54;-16261.94;;;-139.71;86.51
3598;BME280;1813;52.016;8.714;2023-02-23T05:19:29;-16261.94;;;-139.71;86.07
3598;BME280;1813;52.016;8.714;2023-02-23T05:22:06;-16261.94;;;-139.71;86.09
3598;BME280;1813;52.016;8.714;2023-02-23T05:24:42;-16261.94;;;-139.71;86.17
3598;BME280;1813;52.016;8.714;2023-02-23T05:27:16;-16261.94;;;-139.71;86.04
3598;BME280;1813;52.016;8.714;2023-02-23T05:29:50;-16261.94;;;-139.71;86.15
3598;BME280;1813;52.016;8.714;2023-02-23T05:32:24;-16261.94;;;-139.71;86.24
3598;BME280;1813;52.016;8.714;2023-02-23T05:34:58;-16261.94;;;-139.71;86.25
3598;BME280;1813;52.016;8.714;2023-02-23T05:37:34;-16261.94;;;-139.71;86.13
3598;BME280;1813;52.016;8.714;2023-02-23T05:40:09;-16261.94;;;-139.71;86.15
3598;BME280;1813;52.016;8.714;2023-02-23T05:42:43;-16261.94;;;-139.71;86.51
3598;BME280;1813;52.016;8.714;2023-02-23T05:45:17;-16261.94;;;-139.71;86.58
3598;BME280;1813;52.016;8.714;2023-02-23T05:47:51;-16261.94;;;-139.71;86.67
3598;BME280;1813;52.016;8.714;2023-02-23T05:50:25;-16261.94;;;-139.71;86.87
3598;BME280;1813;52.016;8.714;2023-02-23T05:53:02;-16261.94;;;-139.71;86.89
3598;BME280;1813;52.016;8.714;2023-02-23T05:55:36;-16261.94;;;-139.71;86.83
3598;BME280;1813;52.016;8.714;2023-02-23T05:58:10;-16261.94;;;-139.71;86.82
3598;BME280;1813;52.016;8.714;2023-02-23T06:00:45;-16261.94;;;-139.71;86.73
3598;BME280;1813;52.016;8.714;2023-02-23T06:03:19;-16261.94;;;-139.71;86.74
3598;BME280;1813;52.016;8.714;2023-02-23T06:05:54;-16261.94;;;-139.71;86.59
3598;BME280;1813;52.016;8.714;2023-02-23T06:08:30;-16261.94;;;-139.71;86.59
3598;BME280;1813;52.016;8.714;2023-02-23T06:11:05;-16261.94;;;-139.71;86.78
3598;BME280;1813;52.016;8.714;2023-02-23T06:13:40;-16261.94;;;-139.71;86.73
3598;BME280;1813;52.016;8.714;2023-02-23T06:16:14;-16261.94;;;-139.71;86.69
3598;BME280;1813;52.016;8.714;2023-02-23T06:18:49;-16261.94;;;-139.71;86.75
3598;BME280;1813;52.016;8.714;2023-02-23T06:21:22;-16261.94;;;-139.71;86.80
3598;BME280;1813;52.016;8.714;2023-02-23T06:23:59;-16261.94;;;-139.71;86.77
3598;BME280;1813;52.016;8.714;2023-02-23T06:26:33;-16261.94;;;-139.71;86.84
3598;BME280;1813;52.016;8.714;2023-02-23T06:29:07;-16261.94;;;-139.71;86.89
3598;BME280;1813;52.016;8.714;2023-02-23T06:31:41;-16261.94;;;-139.71;86.92
3598;BME280;1813;52.016;8.714;2023-02-23T06:34:15;-16261.94;;;-139.71;86.82
3598;BME280;1813;52.016;8.714;2023-02-23T06:36:50;-16261.94;;;-139.71;86.87
3598;BME280;1813;52.016;8.714;2023-02-23T06:39:50;-16261.94;;;-139.71;86.82
3598;BME280;1813;52.016;8.714;2023-02-23T06:42:23;-16261.94;;;-139.71;86.53
3598;BME280;1813;52.016;8.714;2023-02-23T06:44:57;-16261.94;;;-139.71;86.52
3598;BME280;1813;52.016;8.714;2023-02-23T06:47:31;-16261.94;;;-139.71;86.52
3598;BME280;1813;52.016;8.714;2023-02-23T06:50:06;-16261.94;;;-139.71;86.55
3598;BME280;1813;52.016;8.714;2023-02-23T06:52:42;-16261.94;;;-139.71;86.62
3598;BME280;1813;52.016;8.714;2023-02-23T06:55:19;-16261.94;;;-139.71;86.64
3598;BME280;1813;52.016;8.714;2023-02-23T06:57:52;-16261.94;;;-139.71;86.55
3598;BME280;1813;52.016;8.714;2023-02-23T07:00:26;-16261.94;;;-139.71;86.64
3598;BME280;1813;52.016;8.714;2023-02-23T07:03:01;-16261.94;;;-139.71;86.35
3598;BME280;1813;52.016;8.714;2023-02-23T07:05:34;-16261.94;;;-139.71;86.29
3598;BME280;1813;52.016;8.714;2023-02-23T07:08:08;-16261.94;;;-139.71;86.33
3598;BME280;1813;52.016;8.714;2023-02-23T07:10:45;-16261.94;;;-139.71;86.09
3598;BME280;1813;52.016;8.714;2023-02-23T07:13:19;-16261.94;;;-139.71;86.12
3598;BME280;1813;52.016;8.714;2023-02-23T07:15:55;-16261.94;;;-139.71;86.30
3598;BME280;1813;52.016;8.714;2023-02-23T07:18:30;-16261.94;;;-139.71;86.40
3598;BME280;1813;52.016;8.714;2023-02-23T07:21:05;-16261.94;;;-139.71;86.49
3598;BME280;1813;52.016;8.714;2023-02-23T07:23:38;-16261.94;;;-139.71;86.70
3598;BME280;1813;52.016;8.714;2023-02-23T07:26:15;-16261.94;;;-139.71;86.74
3598;BME280;1813;52.016;8.714;2023-02-23T07:28:49;-16261.94;;;-139.71;86.92
3598;BME280;1813;52.016;8.714;2023-02-23T07:31:23;-16261.94;;;-139.71;87.09
3598;BME280;1813;52.016;8.714;2023-02-23T07:33:57;-16261.94;;;-139.71;87.02
3598;BME280;1813;52.016;8.714;2023-02-23T07:36:30;-16261.94;;;-139.71;87.17
3598;BME280;1813;52.016;8.714;2023-02-23T07:39:04;-16261.94;;;-139.71;87.15
3598;BME280;1813;52.016;8.714;2023-02-23T07:41:41;-16261.94;;;-139.71;86.97
3598;BME280;1813;52.016;8.714;2023-02-23T07:44:22;-16261.94;;;-139.71;87.12
3598;BME280;1813;52.016;8.714;2023-02-23T07:46:56;-16261.94;;;-139.71;87.20
3598;BME280;1813;52.016;8.714;2023-02-23T07:49:31;-16261.94;;;-139.71;87.34
3598;BME280;1813;52.016;8.714;2023-02-23T07:52:05;-16261.94;;;-139.71;87.44
3598;BME280;1813;52.016;8.714;2023-02-23T07:54:39;-16261.94;;;-139.71;87.42
3598;BME280;1813;52.016;8.714;2023-02-23T07:57:15;-16261.94;;;-139.71;87.35
3598;BME280;1813;52.016;8.714;2023-02-23T08:03:09;-16261.94;;;-139.71;87.65
3598;BME280;1813;52.016;8.714;2023-02-23T08:05:44;-16261.94;;;-139.71;87.78
3598;BME280;1813;52.016;8.714;2023-02-23T08:08:18;-16261.94;;;-139.71;87.68
3598;BME280;1813;52.016;8.714;2023-02-23T08:10:58;-16261.94;;;-139.71;87.75
3598;BME280;1813;52.016;8.714;2023-02-23T08:13:36;-16261.94;;;-139.71;87.65
3598;BME280;1813;52.016;8.714;2023-02-23T08:16:10;-16261.94;;;-139.71;87.63
3598;BME280;1813;52.016;8.714;2023-02-23T08:18:46;-16261.94;;;-139.71;87.78
3598;BME280;1813;52.016;8.714;2023-02-23T08:21:19;-16261.94;;;-139.71;87.67
3598;BME280;1813;52.016;8.714;2023-02-23T08:23:53;-16261.94;;;-139.71;87.82
3598;BME280;1813;52.016;8.714;2023-02-23T08:26:27;-16261.94;;;-139.71;87.88
3598;BME280;1813;52.016;8.714;2023-02-23T08:29:03;-16261.94;;;-139.71;87.76
3598;BME280;1813;52.016;8.714;2023-02-23T08:31:37;-16261.94;;;-139.71;87.92
3598;BME280;1813;52.016;8.714;2023-02-23T08:34:11;-16261.94;;;-139.71;88.10
3598;BME280;1813;52.016;8.714;2023-02-23T08:36:45;-16261.94;;;-139.71;87.97
3598;BME280;1813;52.016;8.714;2023-02-23T08:39:19;-16261.94;;;-139.71;88.02
3598;BME280;1813;52.016;8.714;2023-02-23T08:41:53;-16261.94;;;-139.71;87.93
3598;BME280;1813;52.016;8.714;2023-02-23T08:44:30;-16261.94;;;-139.71;88.00
3598;BME280;1813;52.016;8.714;2023-02-23T08:47:04;-16261.94;;;-139.71;88.10
3598;BME280;1813;52.016;8.714;2023-02-23T08:49:37;-16261.94;;;-139.71;88.05
3598;BME280;1813;52.016;8.714;2023-02-23T08:52:12;-16261.94;;;-139.71;87.89
3598;BME280;1813;52.016;8.714;2023-02-23T08:54:46;-16261.94;;;-139.71;87.83
3598;BME280;1813;52.016;8.714;2023-02-23T08:57:20;-16261.94;;;-139.71;87.62
3598;BME280;1813;52.016;8.714;2023-02-23T08:59:56;-16261.94;;;-139.71;87.54
3598;BME280;1813;52.016;8.714;2023-02-23T09:02:31;-16261.94;;;-139.71;87.46
3598;BME280;1813;52.016;8.714;2023-02-23T09:05:06;-16261.94;;;-139.71;87.59
3598;BME280;1813;52.016;8.714;2023-02-23T09:07:41;-16261.94;;;-139.71;87.62
3598;BME280;1813;52.016;8.714;2023-02-23T09:10:18;-16261.94;;;-139.71;87.61
3598;BME280;1813;52.016;8.714;2023-02-23T09:12:54;-16261.94;;;-139.71;87.46
3598;BME280;1813;52.016;8.714;2023-02-23T09:15:31;-16261.94;;;-139.71;87.45
3598;BME280;1813;52.016;8.714;2023-02-23T09:18:05;-16261.94;;;-139.71;87.39
3598;BME280;1813;52.016;8.714;2023-02-23T09:20:41;-16261.94;;;-139.71;87.13
3598;BME280;1813;52.016;8.714;2023-02-23T09:23:15;-16261.94;;;-139.71;87.09
3598;BME280;1813;52.016;8.714;2023-02-23T09:25:49;-16261.94;;;-139.71;87.01
3598;BME280;1813;52.016;8.714;2023-02-23T09:28:22;-16261.94;;;-139.71;87.11
3598;BME280;1813;52.016;8.714;2023-02-23T09:31:06;-16261.94;;;-139.71;86.88
3598;BME280;1813;52.016;8.714;2023-02-23T09:33:41;-16261.94;;;-139.71;87.03
3598;BME280;1813;52.016;8.714;2023-02-23T09:36:18;-16261.94;;;-139.71;86.86
3598;BME280;1813;52.016;8.714;2023-02-23T09:38:53;-16261.94;;;-139.71;86.95
3598;BME280;1813;52.016;8.714;2023-02-23T09:44:47;-16261.94;;;-139.71;86.64
3598;BME280;1813;52.016;8.714;2023-02-23T09:47:33;-16261.94;;;-139.71;86.85
3598;BME280;1813;52.016;8.714;2023-02-23T09:50:16;-16261.94;;;-139.71;86.87
3598;BME280;1813;52.016;8.714;2023-02-23T09:52:56;-16261.94;;;-139.71;86.89
3598;BME280;1813;52.016;8.714;2023-02-23T09:55:32;-16261.94;;;-139.71;86.80
3598;BME280;1813;52.016;8.714;2023-02-23T09:58:17;-16261.94;;;-139.71;86.71
3598;BME280;1813;52.016;8.714;2023-02-23T10:01:17;-16261.94;;;-139.71;86.77
3598;BME280;1813;52.016;8.714;2023-02-23T10:04:11;-16261.94;;;-139.71;86.82
3598;BME280;1813;52.016;8.714;2023-02-23T10:06:53;-16261.94;;;-139.71;86.94
3598;BME280;1813;52.016;8.714;2023-02-23T10:09:45;-16261.94;;;-139.71;86.97
3598;BME280;1813;52.016;8.714;2023-02-23T10:12:30;-16261.94;;;-139.71;86.95
3598;BME280;1813;52.016;8.714;2023-02-23T10:15:17;-16261.94;;;-139.71;86.95
3598;BME280;1813;52.016;8.714;2023-02-23T10:18:09;-16261.94;;;-139.71;86.71
3598;BME280;1813;52.016;8.714;2023-02-23T10:20:53;-16261.94;;;-139.71;86.72
3598;BME280;1813;52.016;8.714;2023-02-23T10:23:35;-16261.94;;;-139.71;86.57
3598;BME280;1813;52.016;8.714;2023-02-23T10:26:16;-16261.94;;;-139.71;86.28
3598;BME280;1813;52.016;8.714;2023-02-23T10:28:53;-16261.94;;;-139.71;86.32
3598;BME280;1813;52.016;8.714;2023-02-23T10:31:32;-16261.94;;;-139.71;86.34
3598;BME280;1813;52.016;8.714;2023-02-23T10:34:14;-16261.94;;;-139.71;86.25
3598;BME280;1813;52.016;8.714;2023-02-23T10:36:57;-16261.94;;;-139.71;86.24
3598;BME280;1813;52.016;8.714;2023-02-23T10:39:32;-16261.94;;;-139.71;86.21
3598;BME280;1813;52.016;8.714;2023-02-23T10:42:13;-16261.94;;;-139.71;86.24
3598;BME280;1813;52.016;8.714;2023-02-23T10:44:48;-16261.94;;;-139.71;86.24
3598;BME280;1813;52.016;8.714;2023-02-23T10:47:25;-16261.94;;;-139.71;86.34
3598;BME280;1813;52.016;8.714;2023-02-23T10:50:02;-16261.94;;;-139.71;86.41
3598;BME280;1813;52.016;8.714;2023-02-23T10:52:44;-16261.94;;;-139.71;86.11
3598;BME280;1813;52.016;8.714;2023-02-23T10:55:21;-16261.94;;;-139.71;86.05
3598;BME280;1813;52.016;8.714;2023-02-23T10:58:08;-16261.94;;;-139.71;85.86
3598;BME280;1813;52.016;8.714;2023-02-23T11:00:52;-16261.94;;;-139.71;85.77
3598;BME280;1813;52.016;8.714;2023-02-23T11:03:29;-16261.94;;;-139.71;85.85
3598;BME280;1813;52.016;8.714;2023-02-23T11:06:06;-16261.94;;;-139.71;85.92
3598;BME280;1813;52.016;8.714;2023-02-23T11:09:17;-16261.94;;;-139.71;86.03
3598;BME280;1813;52.016;8.714;2023-02-23T11:11:55;-16261.94;;;-139.71;85.91
3598;BME280;1813;52.016;8.714;2023-02-23T11:14:32;-16261.94;;;-139.71;85.85
3598;BME280;1813;52.016;8.714;2023-02-23T11:17:22;-16261.94;;;-139.71;85.91
3598;BME280;1813;52.016;8.714;2023-02-23T11:19:59;-16261.94;;;-139.71;86.00
3598;BME280;1813;52.016;8.714;2023-02-23T11:22:35;-16261.94;;;-139.71;85.82
3598;BME280;1813;52.016;8.714;2023-02-23T11:25:22;-16261.94;;;-139.71;85.94
3598;BME280;1813;52.016;8.714;2023-02-23T11:27:58;-16261.94;;;-139.71;85.98
3598;BME280;1813;52.016;8.714;2023-02-23T11:30:35;-16261.94;;;-139.71;85.74
3598;BME280;1813;52.016;8.714;2023-02-23T11:33:16;-16261.94;;;-139.71;85.72
3598;BME280;1813;52.016;8.714;2023-02-23T11:35:57;-16261.94;;;-139.71;85.69
3598;BME280;1813;52.016;8.714;2023-02-23T11:38:31;-16261.94;;;-139.71;85.77
3598;BME280;1813;52.016;8.714;2023-02-23T11:41:22;-16261.94;;;-139.71;85.77
3598;BME280;1813;52.016;8.714;2023-02-23T11:43:57;-16261.94;;;-139.71;85.79
3598;BME280;1813;52.016;8.714;2023-02-23T11:46:35;-16261.94;;;-139.71;85.45
3598;BME280;1813;52.016;8.714;2023-02-23T11:49:17;-16261.94;;;-139.71;85.66
3598;BME280;1813;52.016;8.714;2023-02-23T11:51:53;-16261.94;;;-139.71;85.47
3598;BME280;1813;52.016;8.714;2023-02-23T11:54:31;-16261.94;;;-139.71;85.71
3598;BME280;1813;52.016;8.714;2023-02-23T11:57:19;-16261.94;;;-139.71;85.61
3598;BME280;1813;52.016;8.714;2023-02-23T11:59:55;-16261.94;;;-139.71;85.56
3598;BME280;1813;52.016;8.714;2023-02-23T12:02:30;-16261.94;;;-139.71;85.43
3598;BME280;1813;52.016;8.714;2023-02-23T12:05:07;-16261.94;;;-139.71;85.30
3598;BME280;1813;52.016;8.714;2023-02-23T12:07:46;-16261.94;;;-139.71;85.39
3598;BME280;1813;52.016;8.714;2023-02-23T12:10:26;-16261.94;;;-139.71;85.39
3598;BME280;1813;52.016;8.714;2023-02-23T12:13:15;-16261.94;;;-139.71;85.55
3598;BME280;1813;52.016;8.714;2023-02-23T12:15:57;-16261.94;;;-139.71;85.64
3598;BME280;1813;52.016;8.714;2023-02-23T12:18:41;-16261.94;;;-139.71;85.69
3598;BME280;1813;52.016;8.714;2023-02-23T12:21:26;-16261.94;;;-139.71;85.56
3598;BME280;1813;52.016;8.714;2023-02-23T12:24:09;-16261.94;;;-139.71;85.45
3598;BME280;1813;52.016;8.714;2023-02-23T12:26:49;-16261.94;;;-139.71;85.09
3598;BME280;1813;52.016;8.714;2023-02-23T12:29:32;-16261.94;;;-139.71;85.15
3598;BME280;1813;52.016;8.714;2023-02-23T12:32:12;-16261.94;;;-139.71;85.02
3598;BME280;1813;52.016;8.714;2023-02-23T12:34:51;-16261.94;;;-139.71;84.94
3598;BME280;1813;52.016;8.714;2023-02-23T12:37:35;-16261.94;;;-139.71;85.17
3598;BME280;1813;52.016;8.714;2023-02-23T12:40:15;-16261.94;;;-139.71;85.40
3598;BME280;1813;52.016;8.714;2023-02-23T12:42:55;-16261.94;;;-139.71;85.44
3598;BME280;1813;52.016;8.714;2023-02-23T12:45:39;-16261.94;;;-139.71;85.49
3598;BME280;1813;52.016;8.714;2023-02-23T12:48:29;-16261.94;;;-139.71;85.35
3598;BME280;1813;52.016;8.714;2023-02-23T12:51:16;-16261.94;;;-139.71;85.30
3598;BME280;1813;52.016;8.714;2023-02-23T12:53:51;-16261.94;;;-139.71;85.41
3598;BME280;1813;52.016;8.714;2023-02-23T12:56:33;-16261.94;;;-139.71;85.04
3598;BME280;1813;52.016;8.714;2023-02-23T12:59:44;-16261.94;;;-139.71;85.22
3598;BME280;1813;52.016;8.714;2023-02-23T13:02:29;-16261.94;;;-139.71;85.21
3598;BME280;1813;52.016;8.714;2023-02-23T13:05:15;-16261.94;;;-139.71;85.32
3598;BME280;1813;52.016;8.714;2023-02-23T13:08:01;-16261.94;;;-139.71;85.40
3598;BME280;1813;52.016;8.714;2023-02-23T13:10:46;-16261.94;;;-139.71;85.44
3598;BME280;1813;52.016;8.714;2023-02-23T13:13:28;-16261.94;;;-139.71;85.39
3598;BME280;1813;52.016;8.714;2023-02-23T13:16:12;-16261.94;;;-139.71;85.56
3598;BME280;1813;52.016;8.714;2023-02-23T13:19:00;-16261.94;;;-139.71;85.56
3598;BME280;1813;52.016;8.714;2023-02-23T13:21:41;-16261.94;;;-139.71;85.64
3598;BME280;1813;52.016;8.714;2023-02-23T13:24:18;-16261.94;;;-139.71;85.70
3598;BME280;1813;52.016;8.714;2023-02-23T13:26:59;-16261.94;;;-139.71;85.46
3598;BME280;1813;52.016;8.714;2023-02-23T13:29:36;-16261.94;;;-139.71;85.56
3598;BME280;1813;52.016;8.714;2023-02-23T13:32:12;-16261.94;;;-139.71;85.86
3598;BME280;1813;52.016;8.714;2023-02-23T13:34:53;-16261.94;;;-139.71;85.89
3598;BME280;1813;52.016;8.714;2023-02-23T13:37:39;-16261.94;;;-139.71;85.88
3598;BME280;1813;52.016;8.714;2023-02-23T13:40:22;-16261.94;;;-139.71;85.89
3598;BME280;1813;52.016;8.714;2023-02-23T13:43:08;-16261.94;;;-139.71;85.74
3598;BME280;1813;52.016;8.714;2023-02-23T13:46:02;-16261.94;;;-139.71;85.41
3598;BME280;1813;52.016;8.714;2023-02-23T13:48:44;-16261.94;;;-139.71;85.22
3598;BME280;1813;52.016;8.714;2023-02-23T13:51:27;-16261.94;;;-139.71;85.26
3598;BME280;1813;52.016;8.714;2023-02-23T13:54:16;-16261.94;;;-139.71;85.25
3598;BME280;1813;52.016;8.714;2023-02-23T13:56:57;-16261.94;;;-139.71;85.38
3598;BME280;1813;52.016;8.714;2023-02-23T13:59:37;-16261.94;;;-139.71;85.58
3598;BME280;1813;52.016;8.714;2023-02-23T14:02:22;-16261.94;;;-139.71;85.41
3598;BME280;1813;52.016;8.714;2023-02-23T14:05:16;-16261.94;;;-139.71;85.39